Time;durP1;ratioP1;P1;durP2;ratioP2;P2;SDS_P1;SDS_P2;PMS_P1;PMS_P2;Temp;Humidity;BMP_temperature;BMP_pressure;BME280_temperature;BME280_humidity;BME280_pressure;Samples;Min_cycle;Max_cycle;Signal;HPM_P1;HPM_P2
2022/02/08 00:00:06;;;;;;;14.80;3.80;;;;;;;1.80;84.16;100618.03;5012475;28;20034;-59
2022/02/08 00:02:35;;;;;;;14.48;3.10;;;;;;;1.88;84.20;100615.44;5011016;28;20040;-59
2022/02/08 00:05:01;;;;;;;18.58;3.08;;;;;;;1.91;84.25;100615.13;5011422;28;20117;-60
2022/02/08 00:07:28;;;;;;;12.60;3.22;;;;;;;1.88;83.98;100614.63;5012280;28;20117;-59
2022/02/08 00:09:53;;;;;;;14.15;3.35;;;;;;;1.98;83.74;100604.78;5017676;28;20053;-59
2022/02/08 00:12:19;;;;;;;20.15;3.90;;;;;;;2.01;83.73;100606.28;5004557;28;20045;-59
2022/02/08 00:14:45;;;;;;;12.60;3.63;;;;;;;2.03;84.22;100606.97;4998374;28;20033;-59
2022/02/08 00:17:10;;;;;;;7.05;2.72;;;;;;;2.03;83.76;100612.28;4991305;28;20626;-59
2022/02/08 00:19:36;;;;;;;14.50;3.15;;;;;;;2.03;83.69;100597.22;4992552;28;20073;-59
2022/02/08 00:22:03;;;;;;;18.55;3.70;;;;;;;2.04;83.56;100584.81;4991196;28;20130;-59
2022/02/08 00:24:28;;;;;;;17.65;3.35;;;;;;;2.13;82.76;100597.97;5004731;28;20022;-59
2022/02/08 00:26:54;;;;;;;11.07;2.90;;;;;;;2.14;82.76;100598.78;4990441;28;20515;-60
2022/02/08 00:29:21;;;;;;;11.35;2.80;;;;;;;2.25;83.67;100595.06;4991045;28;20042;-60
2022/02/08 00:31:46;;;;;;;17.77;3.35;;;;;;;2.18;82.96;100594.84;4994541;28;20038;-60
2022/02/08 00:34:11;;;;;;;20.50;3.25;;;;;;;2.21;82.87;100599.84;4992393;28;20387;-60
2022/02/08 00:36:37;;;;;;;18.20;4.00;;;;;;;2.23;83.90;100603.16;5000025;28;20043;-59
2022/02/08 00:39:04;;;;;;;8.63;2.30;;;;;;;2.27;82.64;100598.38;4995962;28;20037;-60
2022/02/08 00:41:30;;;;;;;9.77;2.63;;;;;;;2.27;82.50;100599.22;4996548;28;20261;-59
2022/02/08 00:44:04;;;;;;;15.15;3.08;;;;;;;2.35;82.86;100579.94;4994355;28;20029;-59
2022/02/08 00:48:59;;;;;;;7.80;2.70;;;;;;;2.35;82.14;100586.03;4998734;28;20037;-60
2022/02/08 00:51:26;;;;;;;18.80;3.67;;;;;;;2.42;82.40;100575.69;4999088;28;20061;-59
2022/02/08 00:53:52;;;;;;;8.82;2.78;;;;;;;2.39;82.07;100589.19;4992013;28;20046;-59
2022/02/08 00:56:18;;;;;;;18.05;3.25;;;;;;;2.43;82.05;100576.50;5001265;28;20064;-59
2022/02/08 00:58:43;;;;;;;17.02;3.67;;;;;;;2.37;82.07;100578.78;4990273;28;20054;-59
2022/02/08 01:01:08;;;;;;;9.40;3.00;;;;;;;2.33;82.40;100574.78;4997337;28;20043;-60
2022/02/08 01:03:34;;;;;;;16.13;3.53;;;;;;;2.33;82.83;100577.44;4990539;28;20037;-60
2022/02/08 01:06:06;;;;;;;18.33;3.10;;;;;;;2.36;82.70;100577.09;4990968;28;20389;-59
2022/02/08 01:08:34;;;;;;;13.75;3.92;;;;;;;2.38;82.49;100580.44;4991442;28;20041;-59
2022/02/08 01:10:59;;;;;;;22.27;4.10;;;;;;;2.36;82.26;100577.09;4990335;28;20050;-59
2022/02/08 01:13:25;;;;;;;14.57;3.25;;;;;;;2.38;82.76;100569.84;4995602;28;20104;-60
2022/02/08 01:15:50;;;;;;;22.58;2.90;;;;;;;2.40;82.35;100571.50;4996050;28;20042;-59
2022/02/08 01:18:16;;;;;;;14.85;2.80;;;;;;;2.50;82.10;100572.25;4994848;28;20030;-59
2022/02/08 01:20:42;;;;;;;10.32;2.70;;;;;;;2.43;82.27;100565.91;4991114;28;20052;-59
2022/02/08 01:23:08;;;;;;;17.10;3.40;;;;;;;2.47;82.39;100573.38;4990712;28;20124;-59
2022/02/08 01:38:41;;;;;;;11.95;3.13;;;;;;;2.59;82.82;100576.56;4990145;28;20399;-59
2022/02/08 01:46:27;;;;;;;14.65;3.20;;;;;;;2.54;82.25;100587.63;4988794;28;20104;-60
2022/02/08 01:48:57;;;;;;;19.70;2.70;;;;;;;2.59;82.05;100595.09;4990461;28;20038;-59
2022/02/08 01:51:23;;;;;;;20.00;3.47;;;;;;;2.56;82.72;100584.84;4997208;28;20113;-59
2022/02/08 01:53:48;;;;;;;18.67;3.42;;;;;;;2.59;82.53;100587.16;4997556;28;20046;-59
2022/02/08 01:56:14;;;;;;;13.75;4.32;;;;;;;2.53;82.69;100582.50;4993498;28;20100;-59
2022/02/08 01:58:39;;;;;;;10.55;3.10;;;;;;;2.59;82.55;100576.56;4991187;28;20197;-60
2022/02/08 02:01:05;;;;;;;20.27;3.97;;;;;;;2.53;82.88;100571.94;4988758;28;20054;-59
2022/02/08 02:03:30;;;;;;;17.23;3.47;;;;;;;2.49;82.88;100578.50;4989226;28;20447;-60
2022/02/08 02:05:56;;;;;;;13.20;3.35;;;;;;;2.65;84.03;100568.03;4989463;28;20559;-59
2022/02/08 02:08:21;;;;;;;18.45;3.85;;;;;;;2.64;82.94;100570.81;4994974;28;20533;-59
2022/02/08 02:10:47;;;;;;;12.05;3.25;;;;;;;2.71;83.14;100570.03;4993721;28;20074;-59
2022/02/08 02:13:34;;;;;;;15.18;3.65;;;;;;;2.63;82.95;100562.03;4989510;28;20034;-59
2022/02/08 02:16:02;;;;;;;15.30;3.15;;;;;;;2.67;82.97;100552.81;5002781;28;20614;-59
2022/02/08 02:18:27;;;;;;;18.70;3.75;;;;;;;2.63;83.10;100553.28;5009095;28;20037;-59
2022/02/08 02:20:53;;;;;;;13.48;3.13;;;;;;;2.73;82.66;100557.47;5012548;28;20053;-59
2022/02/08 02:23:18;;;;;;;14.63;3.15;;;;;;;2.70;82.63;100562.25;5009995;28;20030;-59
2022/02/08 02:25:43;;;;;;;17.17;3.42;;;;;;;2.75;82.44;100571.38;5008798;28;20395;-60
2022/02/08 02:28:09;;;;;;;19.38;3.60;;;;;;;2.73;82.48;100557.47;5008811;28;20033;-59
2022/02/08 02:30:34;;;;;;;15.05;3.83;;;;;;;2.71;83.09;100551.50;5012862;28;20046;-59
2022/02/08 02:33:01;;;;;;;22.10;3.60;;;;;;;2.74;82.56;100552.97;5015164;28;20025;-59
2022/02/08 02:35:27;;;;;;;12.60;3.30;;;;;;;2.74;82.39;100543.22;5010712;28;20049;-59
2022/02/08 02:37:57;;;;;;;15.32;3.03;;;;;;;2.83;82.10;100546.75;5012060;28;20037;-59
2022/02/08 02:40:23;;;;;;;20.75;4.20;;;;;;;2.78;82.31;100541.91;5011247;28;20355;-60
2022/02/08 02:42:53;;;;;;;16.35;3.33;;;;;;;2.77;82.25;100537.63;5009350;28;20083;-60
2022/02/08 02:45:22;;;;;;;24.33;3.75;;;;;;;2.77;82.51;100527.03;5019322;28;20497;-59
2022/02/08 02:47:52;;;;;;;23.90;4.18;;;;;;;2.78;82.49;100528.69;5007256;28;20356;-59
2022/02/08 02:50:18;;;;;;;15.60;3.80;;;;;;;2.76;83.05;100530.66;5009885;28;20042;-59
2022/02/08 02:52:43;;;;;;;10.35;3.42;;;;;;;2.78;83.22;100531.34;5013490;28;20042;-59
2022/02/08 02:55:09;;;;;;;12.25;3.38;;;;;;;2.81;82.69;100525.72;5013082;28;20509;-59
2022/02/08 02:57:35;;;;;;;9.50;3.35;;;;;;;2.79;83.15;100525.03;5013680;28;20478;-59
2022/02/08 03:00:12;;;;;;;22.73;4.40;;;;;;;2.77;82.96;100518.25;5013150;28;20037;-59
2022/02/08 03:18:34;;;;;;;14.35;3.70;;;;;;;2.86;83.84;100550.88;4991539;28;20082;-60
2022/02/08 03:21:01;;;;;;;17.75;4.03;;;;;;;2.88;83.92;100546.28;4991994;28;20047;-60
2022/02/08 03:23:27;;;;;;;16.58;4.93;;;;;;;2.87;84.41;100558.69;5004497;28;20115;-61
2022/02/08 03:25:52;;;;;;;19.65;3.78;;;;;;;2.95;83.65;100547.28;4993300;28;20047;-60
2022/02/08 03:28:18;;;;;;;19.80;3.95;;;;;;;2.91;84.02;100548.59;4996704;28;20481;-59
2022/02/08 03:30:43;;;;;;;20.15;3.72;;;;;;;2.89;84.77;100555.84;4993199;28;20472;-60
2022/02/08 03:33:09;;;;;;;11.73;3.10;;;;;;;2.97;83.90;100558.53;4991793;28;20033;-60
2022/02/08 03:35:34;;;;;;;8.93;3.15;;;;;;;2.90;84.30;100558.34;4992787;28;20054;-60
2022/02/08 03:38:03;;;;;;;25.42;5.07;;;;;;;2.88;84.62;100560.34;4991438;28;20041;-60
2022/02/08 03:43:14;;;;;;;22.58;4.43;;;;;;;2.98;85.89;100557.56;4993534;28;20104;-60
2022/02/08 03:45:44;;;;;;;23.67;3.78;;;;;;;2.95;85.66;100557.88;4992193;28;20074;-60
2022/02/08 03:48:12;;;;;;;34.55;4.93;;;;;;;2.87;85.49;100536.66;4997193;28;20046;-59
2022/02/08 03:50:38;;;;;;;14.25;3.72;;;;;;;2.80;86.12;100536.47;4992255;28;20073;-59
2022/02/08 03:53:03;;;;;;;21.13;3.97;;;;;;;2.83;86.62;100532.69;4992477;28;20058;-60
2022/02/08 03:55:29;;;;;;;18.20;3.85;;;;;;;2.82;86.62;100547.72;4993535;28;20492;-60
2022/02/08 03:57:54;;;;;;;23.92;4.45;;;;;;;2.83;86.37;100546.75;4996870;28;20087;-60
2022/02/08 04:00:20;;;;;;;15.52;3.67;;;;;;;2.83;86.58;100552.03;4992319;28;20046;-60
2022/02/08 04:02:50;;;;;;;16.60;4.15;;;;;;;2.86;86.38;100550.88;4990766;28;20022;-60
2022/02/08 04:07:48;;;;;;;15.27;3.47;;;;;;;2.81;86.83;100549.53;4992900;28;20022;-60
2022/02/08 04:10:21;;;;;;;20.42;3.80;;;;;;;2.93;86.79;100551.91;4996683;28;20046;-60
2022/02/08 04:13:10;;;;;;;18.67;5.35;;;;;;;2.90;87.28;100547.75;4992022;28;20390;-60
2022/02/08 04:32:03;;;;;;;19.35;4.32;;;;;;;3.01;88.85;100551.94;4991786;28;20050;-60
2022/02/08 04:42:12;;;;;;;16.27;4.03;;;;;;;2.97;90.57;100553.22;5000079;28;20042;-60
2022/02/08 04:47:28;;;;;;;22.88;4.57;;;;;;;2.98;90.55;100552.25;4996813;28;20486;-60
2022/02/08 04:49:55;;;;;;;21.80;4.72;;;;;;;2.98;91.10;100554.91;4990928;28;20487;-60
2022/02/08 04:52:22;;;;;;;24.33;4.13;;;;;;;2.96;90.91;100544.47;4990784;28;20050;-60
2022/02/08 04:55:09;;;;;;;18.83;4.78;;;;;;;2.93;90.93;100557.22;4991003;28;20100;-60
2022/02/08 04:58:13;;;;;;;16.45;4.05;;;;;;;2.97;91.09;100554.09;4991180;28;20058;-60
2022/02/08 05:35:41;;;;;;;25.08;5.13;;;;;;;3.00;93.77;100515.84;4989464;28;20518;-60
2022/02/08 05:43:23;;;;;;;17.52;4.63;;;;;;;3.03;93.86;100534.06;4990150;28;20030;-60
2022/02/08 05:46:15;;;;;;;17.08;4.50;;;;;;;3.00;94.38;100531.75;4993714;28;20096;-60
2022/02/08 05:48:36;;;;;;;15.50;4.32;;;;;;;3.06;94.51;100536.38;4990553;28;20038;-60
2022/02/08 05:51:06;;;;;;;16.70;5.35;;;;;;;3.06;94.06;100525.78;4995999;28;20034;-60
2022/02/08 05:53:42;;;;;;;22.00;5.97;;;;;;;2.98;94.54;100533.72;4995855;28;20053;-60
2022/02/08 05:56:10;;;;;;;18.67;4.45;;;;;;;2.94;94.92;100533.19;4989483;28;20377;-60
2022/02/08 05:58:36;;;;;;;21.33;4.88;;;;;;;2.95;94.91;100547.28;4997377;28;20037;-60
2022/02/08 06:01:02;;;;;;;18.00;4.05;;;;;;;2.93;94.90;100526.25;4989860;28;20457;-60
2022/02/08 06:03:27;;;;;;;23.40;5.30;;;;;;;2.96;95.14;100525.91;4993513;28;20461;-60
2022/02/08 06:05:53;;;;;;;25.77;5.60;;;;;;;2.95;95.42;100526.09;4996828;28;20057;-61
2022/02/08 06:08:18;;;;;;;34.70;5.95;;;;;;;2.98;95.08;100533.72;4993407;28;20086;-60
2022/02/08 06:10:50;;;;;;;22.25;5.50;;;;;;;3.03;94.83;100529.59;4989637;28;20046;-60
2022/02/08 06:13:17;;;;;;;21.02;6.15;;;;;;;3.00;94.95;100531.75;5002207;28;20060;-60
2022/02/08 06:15:45;;;;;;;22.73;6.15;;;;;;;3.05;94.65;100528.63;4988508;28;20049;-60
2022/02/08 06:18:10;;;;;;;26.52;5.93;;;;;;;3.03;94.62;100521.63;4996573;28;20041;-60
2022/02/08 06:20:36;;;;;;;22.98;5.75;;;;;;;3.11;94.66;100520.84;4995296;28;20043;-60
2022/02/08 06:23:01;;;;;;;27.85;5.63;;;;;;;3.08;94.82;100517.69;4990297;28;20048;-60
2022/02/08 06:25:27;;;;;;;24.85;5.72;;;;;;;3.12;94.93;100519.84;4993897;28;20034;-60
2022/02/08 06:27:52;;;;;;;25.80;5.93;;;;;;;3.15;94.23;100514.22;4995847;28;20334;-60
2022/02/08 06:30:19;;;;;;;24.40;6.07;;;;;;;3.17;94.29;100524.63;4988637;28;20034;-60
2022/02/08 06:32:45;;;;;;;39.63;5.38;;;;;;;3.08;94.05;100523.81;5001132;28;20080;-60
2022/02/08 06:35:19;;;;;;;33.08;5.97;;;;;;;3.10;93.94;100526.31;4988123;28;20033;-60
2022/02/08 06:37:44;;;;;;;20.88;5.00;;;;;;;3.15;94.89;100530.13;4994075;28;20031;-60
2022/02/08 06:40:11;;;;;;;26.67;5.43;;;;;;;3.04;93.91;100530.41;4989589;28;20049;-60
2022/02/08 06:42:36;;;;;;;19.98;5.53;;;;;;;2.98;94.17;100518.66;4994289;28;20022;-60
2022/02/08 06:45:03;;;;;;;17.90;4.65;;;;;;;2.91;94.51;100522.09;4989840;28;20056;-60
2022/02/08 06:47:31;;;;;;;27.35;5.07;;;;;;;2.81;94.27;100527.53;4994785;28;20133;-60
2022/02/08 06:49:56;;;;;;;13.70;3.45;;;;;;;2.81;94.79;100533.66;4994659;28;20048;-60
2022/02/08 06:52:22;;;;;;;26.35;6.28;;;;;;;2.79;95.02;100538.28;4991556;28;20046;-60
2022/02/08 06:54:48;;;;;;;26.33;5.20;;;;;;;2.73;95.38;100536.28;4993572;28;20093;-60
2022/02/08 06:57:13;;;;;;;17.92;3.92;;;;;;;2.78;95.04;100533.97;4992425;28;20046;-60
2022/02/08 06:59:40;;;;;;;20.38;5.30;;;;;;;2.81;95.56;100546.06;4988751;28;20141;-60
2022/02/08 07:02:05;;;;;;;39.53;15.35;;;;;;;2.81;95.91;100549.53;4990111;28;20042;-60
2022/02/08 07:04:31;;;;;;;30.10;5.18;;;;;;;2.84;95.46;100548.38;4989931;28;20033;-60
2022/02/08 07:06:56;;;;;;;22.10;5.05;;;;;;;2.84;95.81;100542.28;4990567;28;20065;-60
2022/02/08 07:09:23;;;;;;;17.58;4.97;;;;;;;2.92;95.74;100544.94;4991208;28;20026;-60
2022/02/08 07:11:49;;;;;;;27.90;5.22;;;;;;;3.03;95.39;100553.44;4989818;28;20661;-60
2022/02/08 07:14:15;;;;;;;14.95;4.90;;;;;;;3.01;95.45;100560.69;4993972;28;20464;-60
2022/02/08 07:16:40;;;;;;;12.45;4.43;;;;;;;3.06;95.92;100546.97;4988215;28;20213;-60
2022/02/08 07:19:06;;;;;;;15.52;5.18;;;;;;;3.12;95.29;100556.94;4989066;28;20129;-60
2022/02/08 07:21:31;;;;;;;24.17;5.63;;;;;;;3.13;95.62;100555.94;4993144;28;20043;-60
2022/02/08 07:23:57;;;;;;;19.10;5.90;;;;;;;3.18;95.60;100555.47;4996648;28;20026;-60
2022/02/08 07:26:25;;;;;;;25.92;6.30;;;;;;;3.24;95.02;100555.66;4992169;28;20042;-60
2022/02/08 07:28:50;;;;;;;15.05;5.57;;;;;;;3.24;95.32;100560.94;4994491;28;20121;-60
2022/02/08 07:31:22;;;;;;;19.35;5.78;;;;;;;3.22;95.43;100551.47;5001382;28;20132;-60
2022/02/08 07:34:03;;;;;;;17.88;4.50;;;;;;;3.29;95.86;100557.78;5000328;28;20022;-60
2022/02/08 07:38:54;;;;;;;25.33;6.07;;;;;;;3.49;95.37;100562.81;5004789;28;20421;-59
2022/02/08 07:41:39;;;;;;;16.35;5.80;;;;;;;3.44;95.28;100566.78;5003617;28;20054;-60
2022/02/08 07:44:09;;;;;;;12.65;4.75;;;;;;;3.49;95.26;100568.94;5000900;28;20034;-61
2022/02/08 07:46:35;;;;;;;26.23;6.55;;;;;;;3.54;95.33;100568.44;5009761;28;20048;-62
2022/02/08 07:49:03;;;;;;;23.13;6.80;;;;;;;3.65;95.32;100584.88;5020617;28;20026;-61
2022/02/08 07:51:30;;;;;;;10.02;5.05;;;;;;;3.75;94.93;100573.28;5018314;28;20077;-60
2022/02/08 07:53:55;;;;;;;14.27;5.38;;;;;;;3.82;94.86;100572.44;5011580;28;20054;-60
2022/02/08 07:56:20;;;;;;;19.08;5.55;;;;;;;3.93;94.97;100576.59;5015088;28;20045;-61
2022/02/08 07:58:46;;;;;;;11.23;5.07;;;;;;;3.96;94.97;100583.38;5012262;28;20040;-61
2022/02/08 08:01:11;;;;;;;12.80;4.57;;;;;;;4.05;94.48;100587.69;5011644;28;20517;-60
2022/02/08 08:03:40;;;;;;;11.88;4.68;;;;;;;4.17;94.61;100582.88;5019699;28;20076;-60
2022/02/08 08:06:07;;;;;;;11.45;6.47;;;;;;;4.25;94.43;100580.22;5011302;28;20038;-60
2022/02/08 08:08:33;;;;;;;16.33;4.60;;;;;;;4.33;94.34;100562.44;5015111;28;20104;-60
2022/02/08 08:10:59;;;;;;;10.60;4.70;;;;;;;4.42;94.27;100576.53;5011043;28;20467;-60
2022/02/08 08:13:26;;;;;;;11.65;5.13;;;;;;;4.42;93.99;100565.91;5017551;28;20033;-60
2022/02/08 08:15:59;;;;;;;8.15;4.40;;;;;;;4.43;94.32;100567.56;5013375;28;20038;-60
2022/02/08 08:20:49;;;;;;;9.75;4.65;;;;;;;4.42;94.73;100571.22;5019200;28;20038;-60
2022/02/08 08:23:15;;;;;;;10.75;4.60;;;;;;;4.44;94.92;100579.84;5012097;28;20045;-60
2022/02/08 08:25:40;;;;;;;12.60;5.20;;;;;;;4.40;95.89;100589.16;5011669;28;20492;-60
2022/02/08 08:28:07;;;;;;;12.10;4.55;;;;;;;4.29;96.57;100602.75;5016527;28;20448;-60
2022/02/08 08:30:33;;;;;;;13.63;5.47;;;;;;;4.22;97.39;100607.06;5011856;28;20092;-60
2022/02/08 08:32:59;;;;;;;8.82;5.15;;;;;;;4.20;98.10;100594.00;5012171;28;20030;-60
2022/02/08 08:35:24;;;;;;;11.38;5.45;;;;;;;4.19;98.40;100602.09;5017513;28;20502;-60
2022/02/08 08:37:53;;;;;;;17.13;6.40;;;;;;;4.17;98.71;100596.13;5011298;28;20038;-60
2022/02/08 08:40:25;;;;;;;8.95;4.82;;;;;;;4.13;98.83;100592.16;5010169;28;20436;-60
2022/02/08 08:48:38;;;;;;;22.95;15.93;;;;;;;4.17;98.79;100580.22;5009269;28;20025;-60
2022/02/08 08:51:25;;;;;;;11.57;5.53;;;;;;;4.24;98.03;100576.75;5019896;28;20038;-60
2022/02/08 08:53:51;;;;;;;17.80;9.43;;;;;;;4.39;98.10;100587.47;5010625;28;20045;-60
2022/02/08 08:56:16;;;;;;;12.20;6.32;;;;;;;4.34;97.76;100595.13;5009311;28;20042;-60
2022/02/08 08:58:44;;;;;;;15.95;6.50;;;;;;;4.28;98.06;100590.50;5011065;28;20470;-60
2022/02/08 09:01:13;;;;;;;18.17;9.82;;;;;;;4.28;97.97;100587.84;5010684;28;20042;-60
2022/02/08 09:03:39;;;;;;;11.15;5.47;;;;;;;4.25;98.24;100596.16;5010498;28;20323;-60
2022/02/08 09:06:04;;;;;;;15.57;5.35;;;;;;;4.35;98.55;100594.13;5009036;28;20077;-60
2022/02/08 09:08:32;;;;;;;15.85;7.03;;;;;;;4.42;98.76;100596.94;5009925;28;20029;-60
2022/02/08 09:11:08;;;;;;;22.02;7.78;;;;;;;4.42;99.22;100602.22;5009929;28;20050;-59
2022/02/08 09:26:25;;;;;;;14.25;6.13;;;;;;;4.56;100.00;100606.03;5010602;28;20046;-59
2022/02/08 09:28:52;;;;;;;8.00;4.30;;;;;;;4.48;100.00;100597.09;5012427;28;20045;-60
2022/02/08 09:31:19;;;;;;;15.00;5.57;;;;;;;4.48;100.00;100607.72;5016764;28;20596;-60
2022/02/08 09:33:46;;;;;;;8.57;5.13;;;;;;;4.53;100.00;100616.00;5009797;28;20026;-60
2022/02/08 09:36:12;;;;;;;12.75;6.07;;;;;;;4.52;100.00;100613.53;5024441;28;20049;-60
2022/02/08 09:38:38;;;;;;;13.65;7.45;;;;;;;4.54;100.00;100615.00;5020399;28;20440;-60
2022/02/08 09:41:04;;;;;;;9.77;5.63;;;;;;;4.54;100.00;100633.59;5009865;28;20400;-61
2022/02/08 09:43:30;;;;;;;9.43;5.50;;;;;;;4.65;100.00;100620.97;5012566;28;20490;-60
2022/02/08 09:46:01;;;;;;;11.25;6.55;;;;;;;4.64;99.97;100633.41;4994760;28;20057;-60
2022/02/08 09:48:39;;;;;;;;;;;;;;;4.73;99.59;100626.25;5014793;28;20168;-60
2022/02/08 09:51:05;;;;;;;11.85;5.93;;;;;;;4.92;98.83;100630.34;5017642;28;20018;-61
2022/02/08 09:53:33;;;;;;;13.50;5.35;;;;;;;4.84;98.52;100631.22;4999269;28;20057;-60
2022/02/08 09:55:59;;;;;;;9.50;4.90;;;;;;;4.97;98.68;100628.84;5009184;28;20045;-60
2022/02/08 09:58:24;;;;;;;11.13;4.93;;;;;;;4.94;98.17;100634.50;5009352;28;20037;-60
2022/02/08 10:00:49;;;;;;;11.80;5.20;;;;;;;4.95;98.08;100630.00;5009246;28;20038;-60
2022/02/08 10:03:16;;;;;;;8.55;4.93;;;;;;;4.82;98.09;100641.19;5009685;28;20802;-60
2022/02/08 10:05:45;;;;;;;13.60;5.72;;;;;;;4.88;98.56;100640.47;5024233;28;20037;-60
2022/02/08 10:08:11;;;;;;;13.07;4.97;;;;;;;4.88;99.33;100645.78;5010840;28;20037;-60
2022/02/08 10:10:36;;;;;;;12.32;5.57;;;;;;;4.93;99.40;100643.44;5012977;28;20053;-60
2022/02/08 10:13:17;;;;;;;8.73;4.80;;;;;;;4.83;99.75;100645.47;5008957;28;20123;-60
2022/02/08 10:23:36;;;;;;;11.00;6.57;;;;;;;4.72;100.00;100652.00;5009729;28;20483;-59
2022/02/08 10:26:06;;;;;;;14.55;6.53;;;;;;;4.74;100.00;100650.00;5009111;28;20050;-59
2022/02/08 10:28:54;;;;;;;12.90;5.90;;;;;;;4.83;100.00;100650.78;5011727;28;20610;-59
2022/02/08 10:31:29;;;;;;;15.45;7.22;;;;;;;4.72;100.00;100645.84;5007996;28;20049;-60
2022/02/08 10:39:26;;;;;;;15.05;6.13;;;;;;;4.87;100.00;100633.53;5015477;28;20122;-59
2022/02/08 10:41:51;;;;;;;6.75;3.80;;;;;;;4.90;100.00;100643.81;5008747;28;20045;-59
2022/02/08 10:44:17;;;;;;;14.85;5.47;;;;;;;5.10;100.00;100630.94;5009187;28;20364;-60
2022/02/08 10:46:42;;;;;;;13.30;5.97;;;;;;;5.07;100.00;100630.47;5008404;28;20621;-60
2022/02/08 10:49:17;;;;;;;9.52;4.75;;;;;;;5.24;100.00;100644.50;5009760;28;20463;-59
2022/02/08 10:54:19;;;;;;;13.25;5.18;;;;;;;5.34;99.66;100634.47;5017918;28;20037;-59
2022/02/08 10:56:48;;;;;;;11.30;4.65;;;;;;;5.41;99.20;100633.59;5014597;28;20038;-59
2022/02/08 10:59:22;;;;;;;14.27;5.88;;;;;;;5.32;99.37;100633.84;5015744;28;20376;-59
2022/02/08 11:02:04;;;;;;;12.10;6.05;;;;;;;5.38;100.00;100627.81;5007089;28;20065;-59
2022/02/08 11:04:49;;;;;;;13.65;5.95;;;;;;;5.32;99.75;100631.19;5008111;28;20323;-60
2022/02/08 11:07:23;;;;;;;17.20;6.07;;;;;;;5.36;100.00;100627.97;5008487;28;20097;-59
2022/02/08 11:10:06;;;;;;;37.67;17.00;;;;;;;5.44;99.81;100629.75;5017167;28;20388;-60
2022/02/08 11:12:48;;;;;;;7.82;5.40;;;;;;;5.33;99.86;100628.34;5009730;28;20054;-59
2022/02/08 11:18:19;;;;;;;16.35;8.63;;;;;;;5.54;99.04;100637.53;5012103;28;20053;-58
2022/02/08 11:20:57;;;;;;;15.00;7.35;;;;;;;5.61;99.10;100619.88;5010911;28;20483;-60
2022/02/08 11:23:30;;;;;;;10.45;5.97;;;;;;;5.58;99.40;100622.88;5012695;28;20026;-60
2022/02/08 11:25:56;;;;;;;15.38;7.38;;;;;;;5.56;99.54;100630.22;5007004;28;20525;-60
2022/02/08 11:28:37;;;;;;;11.63;5.60;;;;;;;5.58;99.08;100626.38;5012921;28;20034;-59
2022/02/08 11:31:32;;;;;;;15.45;7.70;;;;;;;5.66;99.41;100620.16;5011902;28;20042;-60
2022/02/08 11:44:42;;;;;;;30.75;14.35;;;;;;;5.69;99.16;100598.56;5011540;28;20041;-59
2022/02/08 11:47:28;;;;;;;71.82;31.90;;;;;;;5.72;99.06;100595.53;5028395;28;20053;-59
2022/02/08 12:00:12;;;;;;;9.52;6.03;;;;;;;6.03;98.60;100582.16;5015317;28;20038;-59
2022/02/08 12:02:50;;;;;;;28.13;13.98;;;;;;;6.14;97.61;100575.59;5011550;28;20497;-59
2022/02/08 12:07:55;;;;;;;8.63;5.32;;;;;;;6.15;97.70;100569.25;5020161;28;20040;-59
2022/02/08 12:10:30;;;;;;;22.65;12.70;;;;;;;6.08;97.87;100578.16;5021691;28;20056;-59
2022/02/08 12:35:25;;;;;;;12.88;7.80;;;;;;;6.48;95.26;100558.28;5015524;28;20310;-60
2022/02/08 12:50:24;;;;;;;6.35;3.72;;;;;;;6.39;96.62;100562.88;5007588;28;20044;-61
2022/02/08 12:55:36;;;;;;;6.53;3.72;;;;;;;6.26;96.93;100571.50;5014333;28;20074;-59
2022/02/08 13:00:47;;;;;;;7.43;4.65;;;;;;;6.16;98.11;100557.59;5009675;28;20061;-59
2022/02/08 14:03:28;;;;;;;6.70;4.38;;;;;;;6.42;95.72;100537.72;5020082;28;20187;-59
2022/02/08 14:06:04;;;;;;;7.05;5.35;;;;;;;6.42;95.57;100543.03;5020461;28;20452;-59
2022/02/08 14:19:17;;;;;;;6.30;3.25;;;;;;;6.48;95.69;100531.66;5022744;28;20085;-59
2022/02/08 14:21:54;;;;;;;4.13;2.97;;;;;;;6.40;96.10;100531.75;5016964;28;20038;-59
2022/02/08 14:24:33;;;;;;;10.45;4.93;;;;;;;6.38;96.21;100541.75;5012809;28;20061;-60
2022/02/08 14:29:51;;;;;;;4.65;2.95;;;;;;;6.24;97.60;100541.56;5013432;28;20115;-59
2022/02/08 14:35:28;;;;;;;6.63;4.20;;;;;;;6.19;97.30;100543.94;5018955;28;20455;-59
2022/02/08 15:10:11;;;;;;;3.38;1.98;;;;;;;6.65;94.05;100550.94;5022318;28;20392;-60
2022/02/08 15:12:41;;;;;;;4.30;2.45;;;;;;;6.67;94.65;100552.41;5022630;28;20038;-59
2022/02/08 15:17:35;;;;;;;3.55;2.25;;;;;;;6.63;94.57;100551.09;5016730;28;20478;-59
2022/02/08 15:20:05;;;;;;;3.65;2.17;;;;;;;6.68;94.24;100548.72;5025399;28;20033;-59
2022/02/08 15:22:30;;;;;;;4.03;2.47;;;;;;;6.66;94.60;100563.22;5017017;28;20041;-59
2022/02/08 15:24:58;;;;;;;3.33;2.15;;;;;;;6.60;95.11;100561.31;5015291;28;20037;-59
2022/02/08 15:27:27;;;;;;;3.40;2.35;;;;;;;6.52;95.54;100558.75;4994520;28;20485;-59
2022/02/08 15:29:54;;;;;;;3.63;2.22;;;;;;;6.52;95.31;100556.91;5005319;28;20041;-59
2022/02/08 15:32:20;;;;;;;4.25;2.65;;;;;;;6.55;95.39;100555.72;4999040;28;20068;-59
2022/02/08 15:34:47;;;;;;;4.78;2.63;;;;;;;6.54;95.32;100567.38;5003968;28;20029;-59
2022/02/08 15:37:13;;;;;;;6.22;2.47;;;;;;;6.55;95.68;100555.72;5006507;28;20596;-59
2022/02/08 15:39:38;;;;;;;3.33;2.25;;;;;;;6.60;95.49;100562.13;5002037;28;20058;-59
2022/02/08 15:42:04;;;;;;;4.72;2.60;;;;;;;6.52;95.54;100556.91;4994651;28;20054;-59
2022/02/08 15:44:31;;;;;;;4.63;2.83;;;;;;;6.55;95.80;100558.38;5005842;28;20069;-59
2022/02/08 15:47:02;;;;;;;5.15;2.70;;;;;;;6.50;96.00;100556.25;5006059;28;20507;-59
2022/02/08 15:49:28;;;;;;;5.10;3.00;;;;;;;6.44;96.63;100552.50;5001451;28;20149;-59
2022/02/08 15:52:06;;;;;;;4.32;2.80;;;;;;;6.34;97.14;100556.41;4991619;28;20069;-59
2022/02/08 15:54:43;;;;;;;3.85;2.33;;;;;;;6.26;97.89;100563.50;4997228;28;20061;-60
2022/02/08 15:57:42;;;;;;;4.57;2.95;;;;;;;6.30;98.02;100561.31;5005014;28;20212;-62
2022/02/08 16:00:35;;;;;;;7.55;3.20;;;;;;;6.24;98.32;100562.84;5004817;28;20097;-59
2022/02/08 16:06:06;;;;;;;8.52;4.55;;;;;;;6.22;98.50;100561.38;5002772;28;20116;-58
2022/02/08 16:08:36;;;;;;;6.93;3.40;;;;;;;6.26;98.87;100563.50;5004331;28;20038;-59
2022/02/08 16:13:56;;;;;;;5.53;3.90;;;;;;;6.20;99.03;100577.53;5004089;28;20040;-59
2022/02/08 16:24:49;;;;;;;16.40;12.40;;;;;;;6.11;99.83;100573.28;4995608;28;20542;-59
2022/02/08 16:27:32;;;;;;;5.90;3.88;;;;;;;6.09;100.00;100572.66;5004977;28;20060;-59
2022/02/08 16:46:23;;;;;;;17.15;10.07;;;;;;;5.87;100.00;100590.28;5001232;28;20311;-60
2022/02/08 16:49:11;;;;;;;30.90;19.75;;;;;;;5.88;100.00;100588.44;5001140;28;20415;-59
2022/02/08 16:57:12;;;;;;;12.07;7.53;;;;;;;5.82;100.00;100593.47;5004682;28;20353;-59
2022/02/08 16:59:40;;;;;;;8.43;5.85;;;;;;;5.79;100.00;100587.66;5009124;28;20148;-60
2022/02/08 17:02:07;;;;;;;8.70;5.90;;;;;;;5.83;100.00;100592.44;4996916;28;20039;-59
2022/02/08 17:04:33;;;;;;;13.32;7.68;;;;;;;5.87;100.00;100592.13;4999304;28;20162;-59
2022/02/08 17:06:59;;;;;;;8.48;6.22;;;;;;;5.84;100.00;100594.13;4998537;28;20058;-59
2022/02/08 17:09:45;;;;;;;10.27;6.47;;;;;;;5.87;100.00;100602.75;4994636;28;20546;-59
2022/02/08 17:12:22;;;;;;;11.88;7.45;;;;;;;5.82;100.00;100609.44;5014270;28;20048;-59
2022/02/08 17:47:18;;;;;;;17.80;10.48;;;;;;;5.76;100.00;100596.81;4999416;28;20100;-60
2022/02/08 17:49:44;;;;;;;8.95;5.65;;;;;;;5.73;100.00;100583.88;4985444;28;20046;-60
2022/02/08 17:52:09;;;;;;;9.00;6.18;;;;;;;5.72;100.00;100589.41;4996813;28;20042;-60
2022/02/08 17:54:34;;;;;;;9.57;6.90;;;;;;;5.75;100.00;100597.84;4997071;28;20050;-60
2022/02/08 17:57:01;;;;;;;11.50;6.97;;;;;;;5.76;100.00;100599.47;4998599;28;20057;-60
2022/02/08 17:59:27;;;;;;;11.20;6.57;;;;;;;5.75;100.00;100603.16;4992626;28;20054;-61
2022/02/08 18:01:52;;;;;;;7.70;5.68;;;;;;;5.80;100.00;100598.13;4997162;28;20058;-59
2022/02/08 18:04:18;;;;;;;10.82;6.75;;;;;;;5.80;100.00;100607.94;4999346;28;20093;-59
2022/02/08 18:06:44;;;;;;;8.07;5.55;;;;;;;5.78;100.00;100612.63;4997937;28;20381;-59
2022/02/08 18:09:18;;;;;;;9.40;6.97;;;;;;;5.81;100.00;100614.91;4993359;28;20022;-60